sensor_id;sensor_type;location;lat;lon;timestamp;P1;durP1;ratioP1;P2;durP2;ratioP2
11394;SDS011;5753;54.402;10.220;2023-04-24T00:01:54;6.78;;;4.30;;
11394;SDS011;5753;54.402;10.220;2023-04-24T00:04:21;5.82;;;5.28;;
11394;SDS011;5753;54.402;10.220;2023-04-24T00:06:50;7.68;;;6.20;;
11394;SDS011;5753;54.402;10.220;2023-04-24T00:09:21;7.65;;;5.05;;
11394;SDS011;5753;54.402;10.220;2023-04-24T00:11:48;5.22;;;4.03;;
11394;SDS011;5753;54.402;10.220;2023-04-24T00:14:14;6.43;;;3.97;;
11394;SDS011;5753;54.402;10.220;2023-04-24T00:16:40;5.28;;;4.53;;
11394;SDS011;5753;54.402;10.220;2023-04-24T00:19:06;6.97;;;5.93;;
11394;SDS011;5753;54.402;10.220;2023-04-24T00:21:32;6.88;;;6.18;;
11394;SDS011;5753;54.402;10.220;2023-04-24T00:23:59;7.38;;;4.78;;
11394;SDS011;5753;54.402;10.220;2023-04-24T00:26:25;6.07;;;5.45;;
11394;SDS011;5753;54.402;10.220;2023-04-24T00:28:51;7.75;;;5.57;;
11394;SDS011;5753;54.402;10.220;2023-04-24T00:31:17;6.97;;;6.28;;
11394;SDS011;5753;54.402;10.220;2023-04-24T00:33:44;6.05;;;5.22;;
11394;SDS011;5753;54.402;10.220;2023-04-24T00:36:10;9.50;;;4.97;;
11394;SDS011;5753;54.402;10.220;2023-04-24T00:38:36;6.90;;;5.38;;
11394;SDS011;5753;54.402;10.220;2023-04-24T00:41:02;5.35;;;4.88;;
11394;SDS011;5753;54.402;10.220;2023-04-24T00:43:28;4.55;;;4.15;;
11394;SDS011;5753;54.402;10.220;2023-04-24T00:45:54;5.82;;;4.18;;
11394;SDS011;5753;54.402;10.220;2023-04-24T00:48:21;5.60;;;4.60;;
11394;SDS011;5753;54.402;10.220;2023-04-24T00:50:48;5.05;;;4.55;;
11394;SDS011;5753;54.402;10.220;2023-04-24T00:53:14;6.00;;;5.50;;
11394;SDS011;5753;54.402;10.220;2023-04-24T00:55:40;4.93;;;4.43;;
11394;SDS011;5753;54.402;10.220;2023-04-24T00:58:06;6.93;;;5.07;;
11394;SDS011;5753;54.402;10.220;2023-04-24T01:00:32;6.53;;;5.05;;
11394;SDS011;5753;54.402;10.220;2023-04-24T01:03:00;5.95;;;5.38;;
11394;SDS011;5753;54.402;10.220;2023-04-24T01:05:29;4.95;;;4.45;;
11394;SDS011;5753;54.402;10.220;2023-04-24T01:07:55;7.50;;;6.05;;
11394;SDS011;5753;54.402;10.220;2023-04-24T01:10:22;8.90;;;5.45;;
11394;SDS011;5753;54.402;10.220;2023-04-24T01:12:50;4.20;;;3.83;;
11394;SDS011;5753;54.402;10.220;2023-04-24T01:15:17;7.25;;;5.93;;
11394;SDS011;5753;54.402;10.220;2023-04-24T01:17:44;7.05;;;4.80;;
11394;SDS011;5753;54.402;10.220;2023-04-24T01:20:10;6.18;;;5.40;;
11394;SDS011;5753;54.402;10.220;2023-04-24T01:22:37;6.03;;;5.43;;
11394;SDS011;5753;54.402;10.220;2023-04-24T01:25:03;5.60;;;4.38;;
11394;SDS011;5753;54.402;10.220;2023-04-24T01:27:30;7.22;;;5.35;;
11394;SDS011;5753;54.402;10.220;2023-04-24T01:29:57;6.25;;;5.13;;
11394;SDS011;5753;54.402;10.220;2023-04-24T01:32:23;7.07;;;6.03;;
11394;SDS011;5753;54.402;10.220;2023-04-24T01:34:51;5.40;;;4.85;;
11394;SDS011;5753;54.402;10.220;2023-04-24T01:37:17;5.97;;;4.97;;
11394;SDS011;5753;54.402;10.220;2023-04-24T01:39:43;5.93;;;5.38;;
11394;SDS011;5753;54.402;10.220;2023-04-24T01:42:10;8.07;;;5.57;;
11394;SDS011;5753;54.402;10.220;2023-04-24T01:44:36;6.22;;;4.60;;
11394;SDS011;5753;54.402;10.220;2023-04-24T01:47:03;8.43;;;5.55;;
11394;SDS011;5753;54.402;10.220;2023-04-24T01:49:30;10.85;;;5.78;;
11394;SDS011;5753;54.402;10.220;2023-04-24T01:51:57;8.50;;;5.43;;
11394;SDS011;5753;54.402;10.220;2023-04-24T01:54:23;6.80;;;4.95;;
11394;SDS011;5753;54.402;10.220;2023-04-24T01:56:50;7.25;;;5.43;;
11394;SDS011;5753;54.402;10.220;2023-04-24T01:59:16;9.60;;;5.82;;
11394;SDS011;5753;54.402;10.220;2023-04-24T02:01:45;7.50;;;4.93;;
11394;SDS011;5753;54.402;10.220;2023-04-24T02:04:11;5.97;;;5.40;;
11394;SDS011;5753;54.402;10.220;2023-04-24T02:06:38;10.13;;;6.40;;
11394;SDS011;5753;54.402;10.220;2023-04-24T02:09:04;7.78;;;5.68;;
11394;SDS011;5753;54.402;10.220;2023-04-24T02:11:30;4.95;;;4.32;;
11394;SDS011;5753;54.402;10.220;2023-04-24T02:13:57;7.95;;;4.97;;
11394;SDS011;5753;54.402;10.220;2023-04-24T02:16:23;5.82;;;5.22;;
11394;SDS011;5753;54.402;10.220;2023-04-24T02:18:49;7.30;;;4.80;;
11394;SDS011;5753;54.402;10.220;2023-04-24T02:21:15;19.35;;;6.07;;
11394;SDS011;5753;54.402;10.220;2023-04-24T02:23:41;6.72;;;6.07;;
11394;SDS011;5753;54.402;10.220;2023-04-24T02:26:08;5.68;;;4.40;;
11394;SDS011;5753;54.402;10.220;2023-04-24T02:28:34;7.15;;;6.55;;
11394;SDS011;5753;54.402;10.220;2023-04-24T02:31:00;6.68;;;5.20;;
11394;SDS011;5753;54.402;10.220;2023-04-24T02:33:26;7.82;;;6.75;;
11394;SDS011;5753;54.402;10.220;2023-04-24T02:35:52;6.25;;;5.68;;
11394;SDS011;5753;54.402;10.220;2023-04-24T02:38:18;5.30;;;4.57;;
11394;SDS011;5753;54.402;10.220;2023-04-24T02:40:44;7.70;;;5.25;;
11394;SDS011;5753;54.402;10.220;2023-04-24T02:43:10;7.47;;;6.55;;
11394;SDS011;5753;54.402;10.220;2023-04-24T02:45:37;5.55;;;3.95;;
11394;SDS011;5753;54.402;10.220;2023-04-24T02:48:03;7.20;;;6.40;;
11394;SDS011;5753;54.402;10.220;2023-04-24T02:50:29;7.95;;;6.20;;
11394;SDS011;5753;54.402;10.220;2023-04-24T02:52:56;9.88;;;6.88;;
11394;SDS011;5753;54.402;10.220;2023-04-24T02:55:22;6.80;;;4.63;;
11394;SDS011;5753;54.402;10.220;2023-04-24T02:57:48;5.47;;;4.78;;
11394;SDS011;5753;54.402;10.220;2023-04-24T03:00:14;6.68;;;5.45;;
11394;SDS011;5753;54.402;10.220;2023-04-24T03:02:41;13.20;;;8.10;;
11394;SDS011;5753;54.402;10.220;2023-04-24T03:05:07;10.55;;;6.07;;
11394;SDS011;5753;54.402;10.220;2023-04-24T03:07:34;7.57;;;5.85;;
11394;SDS011;5753;54.402;10.220;2023-04-24T03:10:00;8.95;;;5.63;;
11394;SDS011;5753;54.402;10.220;2023-04-24T03:12:26;12.93;;;6.75;;
11394;SDS011;5753;54.402;10.220;2023-04-24T03:14:52;10.55;;;6.45;;
11394;SDS011;5753;54.402;10.220;2023-04-24T03:17:18;7.85;;;5.95;;
11394;SDS011;5753;54.402;10.220;2023-04-24T03:19:45;7.40;;;5.70;;
11394;SDS011;5753;54.402;10.220;2023-04-24T03:22:11;10.18;;;6.22;;
11394;SDS011;5753;54.402;10.220;2023-04-24T03:24:37;7.85;;;5.30;;
11394;SDS011;5753;54.402;10.220;2023-04-24T03:27:03;7.68;;;7.05;;
11394;SDS011;5753;54.402;10.220;2023-04-24T03:29:29;6.90;;;4.80;;
11394;SDS011;5753;54.402;10.220;2023-04-24T03:31:55;6.07;;;5.45;;
11394;SDS011;5753;54.402;10.220;2023-04-24T03:34:21;5.88;;;5.30;;
11394;SDS011;5753;54.402;10.220;2023-04-24T03:36:47;6.47;;;4.97;;
11394;SDS011;5753;54.402;10.220;2023-04-24T03:39:13;6.38;;;5.78;;
11394;SDS011;5753;54.402;10.220;2023-04-24T03:41:40;8.35;;;4.75;;
11394;SDS011;5753;54.402;10.220;2023-04-24T03:44:06;5.80;;;4.63;;
11394;SDS011;5753;54.402;10.220;2023-04-24T03:46:32;6.88;;;6.20;;
11394;SDS011;5753;54.402;10.220;2023-04-24T03:48:58;6.78;;;5.68;;
11394;SDS011;5753;54.402;10.220;2023-04-24T03:51:24;7.13;;;5.13;;
11394;SDS011;5753;54.402;10.220;2023-04-24T03:53:52;8.07;;;5.32;;
11394;SDS011;5753;54.402;10.220;2023-04-24T03:56:18;7.15;;;5.75;;
11394;SDS011;5753;54.402;10.220;2023-04-24T03:58:45;5.85;;;5.30;;
11394;SDS011;5753;54.402;10.220;2023-04-24T04:01:11;3.45;;;3.17;;
11394;SDS011;5753;54.402;10.220;2023-04-24T04:03:38;7.43;;;4.68;;
11394;SDS011;5753;54.402;10.220;2023-04-24T04:06:04;8.65;;;5.10;;
11394;SDS011;5753;54.402;10.220;2023-04-24T04:08:31;6.55;;;5.70;;
11394;SDS011;5753;54.402;10.220;2023-04-24T04:10:57;10.95;;;4.85;;
11394;SDS011;5753;54.402;10.220;2023-04-24T04:13:23;4.57;;;3.90;;
11394;SDS011;5753;54.402;10.220;2023-04-24T04:15:49;5.88;;;5.07;;
11394;SDS011;5753;54.402;10.220;2023-04-24T04:18:15;8.13;;;5.47;;
11394;SDS011;5753;54.402;10.220;2023-04-24T04:20:41;6.13;;;4.45;;
11394;SDS011;5753;54.402;10.220;2023-04-24T04:23:07;5.38;;;4.88;;
11394;SDS011;5753;54.402;10.220;2023-04-24T04:25:33;5.15;;;3.50;;
11394;SDS011;5753;54.402;10.220;2023-04-24T04:27:59;6.82;;;4.97;;
11394;SDS011;5753;54.402;10.220;2023-04-24T04:30:26;6.63;;;5.63;;
11394;SDS011;5753;54.402;10.220;2023-04-24T04:32:54;5.28;;;4.47;;
11394;SDS011;5753;54.402;10.220;2023-04-24T04:35:21;5.07;;;3.60;;
11394;SDS011;5753;54.402;10.220;2023-04-24T04:37:47;5.55;;;4.70;;
11394;SDS011;5753;54.402;10.220;2023-04-24T04:40:13;7.20;;;3.83;;
11394;SDS011;5753;54.402;10.220;2023-04-24T04:42:39;5.57;;;4.10;;
11394;SDS011;5753;54.402;10.220;2023-04-24T04:45:09;6.78;;;4.63;;
11394;SDS011;5753;54.402;10.220;2023-04-24T04:47:36;3.80;;;3.45;;
11394;SDS011;5753;54.402;10.220;2023-04-24T04:50:02;5.22;;;3.90;;
11394;SDS011;5753;54.402;10.220;2023-04-24T04:52:30;5.43;;;3.85;;
11394;SDS011;5753;54.402;10.220;2023-04-24T04:54:56;3.55;;;3.20;;
11394;SDS011;5753;54.402;10.220;2023-04-24T04:57:22;8.18;;;3.33;;
11394;SDS011;5753;54.402;10.220;2023-04-24T04:59:48;10.52;;;3.10;;
11394;SDS011;5753;54.402;10.220;2023-04-24T05:02:14;3.40;;;2.95;;
11394;SDS011;5753;54.402;10.220;2023-04-24T05:04:41;4.38;;;3.97;;
11394;SDS011;5753;54.402;10.220;2023-04-24T05:07:07;2.90;;;2.60;;
11394;SDS011;5753;54.402;10.220;2023-04-24T05:09:33;2.40;;;2.20;;
11394;SDS011;5753;54.402;10.220;2023-04-24T05:11:59;2.47;;;2.10;;
11394;SDS011;5753;54.402;10.220;2023-04-24T05:14:25;4.55;;;3.33;;
11394;SDS011;5753;54.402;10.220;2023-04-24T05:16:51;3.28;;;2.28;;
11394;SDS011;5753;54.402;10.220;2023-04-24T05:19:17;3.35;;;2.38;;
11394;SDS011;5753;54.402;10.220;2023-04-24T05:21:43;3.38;;;2.63;;
11394;SDS011;5753;54.402;10.220;2023-04-24T05:24:10;2.83;;;2.63;;
11394;SDS011;5753;54.402;10.220;2023-04-24T05:26:36;4.65;;;2.63;;
11394;SDS011;5753;54.402;10.220;2023-04-24T05:29:02;3.00;;;2.70;;
11394;SDS011;5753;54.402;10.220;2023-04-24T05:31:29;2.65;;;2.40;;
11394;SDS011;5753;54.402;10.220;2023-04-24T05:33:55;2.30;;;2.10;;
11394;SDS011;5753;54.402;10.220;2023-04-24T05:36:21;4.93;;;3.17;;
11394;SDS011;5753;54.402;10.220;2023-04-24T05:38:47;4.97;;;2.40;;
11394;SDS011;5753;54.402;10.220;2023-04-24T05:41:13;2.80;;;2.42;;
11394;SDS011;5753;54.402;10.220;2023-04-24T05:43:41;3.13;;;2.00;;
11394;SDS011;5753;54.402;10.220;2023-04-24T05:46:07;2.72;;;2.35;;
11394;SDS011;5753;54.402;10.220;2023-04-24T05:48:33;2.80;;;2.20;;
11394;SDS011;5753;54.402;10.220;2023-04-24T05:50:59;2.15;;;2.00;;
11394;SDS011;5753;54.402;10.220;2023-04-24T05:53:25;3.33;;;2.35;;
11394;SDS011;5753;54.402;10.220;2023-04-24T05:55:51;2.75;;;2.13;;
11394;SDS011;5753;54.402;10.220;2023-04-24T05:58:18;2.92;;;2.55;;
11394;SDS011;5753;54.402;10.220;2023-04-24T06:00:44;4.03;;;3.63;;
11394;SDS011;5753;54.402;10.220;2023-04-24T06:03:11;2.65;;;2.08;;
11394;SDS011;5753;54.402;10.220;2023-04-24T06:05:37;4.07;;;3.67;;
11394;SDS011;5753;54.402;10.220;2023-04-24T06:08:03;3.90;;;3.58;;
11394;SDS011;5753;54.402;10.220;2023-04-24T06:10:30;3.15;;;2.85;;
11394;SDS011;5753;54.402;10.220;2023-04-24T06:12:56;3.25;;;2.58;;
11394;SDS011;5753;54.402;10.220;2023-04-24T06:15:27;9.18;;;2.78;;
11394;SDS011;5753;54.402;10.220;2023-04-24T06:17:54;3.60;;;2.53;;
11394;SDS011;5753;54.402;10.220;2023-04-24T06:20:20;3.25;;;2.60;;
11394;SDS011;5753;54.402;10.220;2023-04-24T06:22:46;2.50;;;2.30;;
11394;SDS011;5753;54.402;10.220;2023-04-24T06:25:12;4.35;;;2.35;;
11394;SDS011;5753;54.402;10.220;2023-04-24T06:27:38;2.83;;;2.50;;
11394;SDS011;5753;54.402;10.220;2023-04-24T06:30:05;4.22;;;3.33;;
11394;SDS011;5753;54.402;10.220;2023-04-24T06:32:32;2.50;;;2.03;;
11394;SDS011;5753;54.402;10.220;2023-04-24T06:34:58;3.85;;;2.78;;
11394;SDS011;5753;54.402;10.220;2023-04-24T06:37:24;3.22;;;1.83;;
11394;SDS011;5753;54.402;10.220;2023-04-24T06:39:50;2.63;;;1.90;;
11394;SDS011;5753;54.402;10.220;2023-04-24T06:42:16;3.72;;;2.13;;
11394;SDS011;5753;54.402;10.220;2023-04-24T06:44:43;2.63;;;2.42;;
11394;SDS011;5753;54.402;10.220;2023-04-24T06:47:10;2.13;;;1.92;;
11394;SDS011;5753;54.402;10.220;2023-04-24T06:49:38;2.88;;;1.90;;
11394;SDS011;5753;54.402;10.220;2023-04-24T06:52:04;3.40;;;2.28;;
11394;SDS011;5753;54.402;10.220;2023-04-24T06:54:31;2.10;;;1.80;;
11394;SDS011;5753;54.402;10.220;2023-04-24T06:56:58;2.45;;;1.95;;
11394;SDS011;5753;54.402;10.220;2023-04-24T06:59:25;2.33;;;2.13;;
11394;SDS011;5753;54.402;10.220;2023-04-24T07:01:52;3.03;;;2.10;;
11394;SDS011;5753;54.402;10.220;2023-04-24T07:04:19;2.15;;;1.75;;
11394;SDS011;5753;54.402;10.220;2023-04-24T07:06:45;2.80;;;2.38;;
11394;SDS011;5753;54.402;10.220;2023-04-24T07:09:12;2.72;;;2.05;;
11394;SDS011;5753;54.402;10.220;2023-04-24T07:11:43;2.28;;;2.08;;
11394;SDS011;5753;54.402;10.220;2023-04-24T07:14:10;3.10;;;2.28;;
11394;SDS011;5753;54.402;10.220;2023-04-24T07:16:37;2.95;;;2.42;;
11394;SDS011;5753;54.402;10.220;2023-04-24T07:19:03;2.83;;;2.58;;
11394;SDS011;5753;54.402;10.220;2023-04-24T07:21:29;2.47;;;2.28;;
11394;SDS011;5753;54.402;10.220;2023-04-24T07:23:56;3.53;;;2.40;;
11394;SDS011;5753;54.402;10.220;2023-04-24T07:26:23;2.30;;;2.15;;
11394;SDS011;5753;54.402;10.220;2023-04-24T07:28:50;2.53;;;2.17;;
11394;SDS011;5753;54.402;10.220;2023-04-24T07:31:16;3.35;;;1.55;;
11394;SDS011;5753;54.402;10.220;2023-04-24T07:33:42;1.88;;;1.77;;
11394;SDS011;5753;54.402;10.220;2023-04-24T07:36:09;1.92;;;1.80;;
11394;SDS011;5753;54.402;10.220;2023-04-24T07:38:40;4.75;;;2.78;;
11394;SDS011;5753;54.402;10.220;2023-04-24T07:41:07;2.22;;;1.42;;
11394;SDS011;5753;54.402;10.220;2023-04-24T07:43:33;2.67;;;1.80;;
11394;SDS011;5753;54.402;10.220;2023-04-24T07:46:00;2.33;;;2.10;;
11394;SDS011;5753;54.402;10.220;2023-04-24T07:48:26;4.28;;;2.33;;
11394;SDS011;5753;54.402;10.220;2023-04-24T07:50:53;1.73;;;1.60;;
11394;SDS011;5753;54.402;10.220;2023-04-24T07:53:19;2.15;;;1.67;;
11394;SDS011;5753;54.402;10.220;2023-04-24T07:55:45;2.22;;;2.00;;
11394;SDS011;5753;54.402;10.220;2023-04-24T07:58:11;2.72;;;2.17;;
11394;SDS011;5753;54.402;10.220;2023-04-24T08:00:37;2.55;;;2.03;;
11394;SDS011;5753;54.402;10.220;2023-04-24T08:03:04;2.95;;;1.77;;
11394;SDS011;5753;54.402;10.220;2023-04-24T08:05:30;2.00;;;1.58;;
11394;SDS011;5753;54.402;10.220;2023-04-24T08:07:56;3.75;;;3.25;;
11394;SDS011;5753;54.402;10.220;2023-04-24T08:10:22;1.92;;;1.70;;
11394;SDS011;5753;54.402;10.220;2023-04-24T08:12:49;4.10;;;3.67;;
11394;SDS011;5753;54.402;10.220;2023-04-24T08:15:16;2.35;;;1.92;;
11394;SDS011;5753;54.402;10.220;2023-04-24T08:17:42;6.63;;;3.40;;
11394;SDS011;5753;54.402;10.220;2023-04-24T08:20:08;2.22;;;1.73;;
11394;SDS011;5753;54.402;10.220;2023-04-24T08:22:41;2.22;;;1.73;;
11394;SDS011;5753;54.402;10.220;2023-04-24T08:25:08;1.85;;;1.75;;
11394;SDS011;5753;54.402;10.220;2023-04-24T08:27:36;2.33;;;1.85;;
11394;SDS011;5753;54.402;10.220;2023-04-24T08:30:02;3.45;;;2.72;;
11394;SDS011;5753;54.402;10.220;2023-04-24T08:32:30;3.17;;;1.70;;
11394;SDS011;5753;54.402;10.220;2023-04-24T08:34:56;3.55;;;2.28;;
11394;SDS011;5753;54.402;10.220;2023-04-24T08:37:23;4.15;;;2.15;;
11394;SDS011;5753;54.402;10.220;2023-04-24T08:39:51;3.63;;;2.75;;
11394;SDS011;5753;54.402;10.220;2023-04-24T08:42:17;3.03;;;2.33;;
11394;SDS011;5753;54.402;10.220;2023-04-24T08:44:44;3.08;;;2.72;;
11394;SDS011;5753;54.402;10.220;2023-04-24T08:47:11;2.70;;;2.40;;
11394;SDS011;5753;54.402;10.220;2023-04-24T08:49:38;2.85;;;2.33;;
11394;SDS011;5753;54.402;10.220;2023-04-24T08:52:04;5.20;;;3.30;;
11394;SDS011;5753;54.402;10.220;2023-04-24T08:54:31;2.95;;;2.60;;
11394;SDS011;5753;54.402;10.220;2023-04-24T08:56:59;3.60;;;3.30;;
11394;SDS011;5753;54.402;10.220;2023-04-24T08:59:27;5.78;;;3.10;;
11394;SDS011;5753;54.402;10.220;2023-04-24T09:01:53;3.22;;;2.95;;
11394;SDS011;5753;54.402;10.220;2023-04-24T09:04:21;3.17;;;2.88;;
11394;SDS011;5753;54.402;10.220;2023-04-24T09:06:50;3.17;;;2.42;;
11394;SDS011;5753;54.402;10.220;2023-04-24T09:09:20;3.42;;;3.13;;
11394;SDS011;5753;54.402;10.220;2023-04-24T09:11:48;2.85;;;2.63;;
11394;SDS011;5753;54.402;10.220;2023-04-24T09:14:16;3.88;;;3.42;;
11394;SDS011;5753;54.402;10.220;2023-04-24T09:16:48;3.13;;;2.83;;
11394;SDS011;5753;54.402;10.220;2023-04-24T09:19:14;3.70;;;3.38;;
11394;SDS011;5753;54.402;10.220;2023-04-24T09:21:40;3.42;;;2.92;;
11394;SDS011;5753;54.402;10.220;2023-04-24T09:24:14;4.68;;;4.30;;
11394;SDS011;5753;54.402;10.220;2023-04-24T09:26:47;4.75;;;3.58;;
11394;SDS011;5753;54.402;10.220;2023-04-24T09:29:20;4.28;;;3.67;;
11394;SDS011;5753;54.402;10.220;2023-04-24T09:31:46;4.25;;;3.90;;
11394;SDS011;5753;54.402;10.220;2023-04-24T09:34:13;5.47;;;4.43;;
11394;SDS011;5753;54.402;10.220;2023-04-24T09:36:42;4.90;;;4.35;;
11394;SDS011;5753;54.402;10.220;2023-04-24T09:39:13;3.80;;;3.00;;
11394;SDS011;5753;54.402;10.220;2023-04-24T09:44:21;4.78;;;4.38;;
11394;SDS011;5753;54.402;10.220;2023-04-24T09:46:50;4.18;;;3.55;;
11394;SDS011;5753;54.402;10.220;2023-04-24T09:49:25;4.88;;;4.47;;
11394;SDS011;5753;54.402;10.220;2023-04-24T09:51:52;4.25;;;3.95;;
11394;SDS011;5753;54.402;10.220;2023-04-24T09:54:28;5.55;;;4.93;;
11394;SDS011;5753;54.402;10.220;2023-04-24T09:56:55;5.65;;;5.13;;
11394;SDS011;5753;54.402;10.220;2023-04-24T09:59:22;4.72;;;4.30;;
11394;SDS011;5753;54.402;10.220;2023-04-24T10:01:48;6.47;;;4.80;;
11394;SDS011;5753;54.402;10.220;2023-04-24T10:04:19;7.30;;;5.40;;
11394;SDS011;5753;54.402;10.220;2023-04-24T10:06:48;7.55;;;4.40;;
11394;SDS011;5753;54.402;10.220;2023-04-24T10:09:16;4.53;;;4.07;;
11394;SDS011;5753;54.402;10.220;2023-04-24T10:11:44;7.05;;;5.97;;
11394;SDS011;5753;54.402;10.220;2023-04-24T10:14:12;7.38;;;5.25;;
11394;SDS011;5753;54.402;10.220;2023-04-24T10:16:40;5.45;;;4.25;;
11394;SDS011;5753;54.402;10.220;2023-04-24T10:19:07;4.95;;;4.28;;
11394;SDS011;5753;54.402;10.220;2023-04-24T10:21:34;7.57;;;5.45;;
11394;SDS011;5753;54.402;10.220;2023-04-24T10:24:07;4.75;;;4.15;;
11394;SDS011;5753;54.402;10.220;2023-04-24T10:26:34;5.93;;;3.97;;
11394;SDS011;5753;54.402;10.220;2023-04-24T10:29:01;4.85;;;4.18;;
11394;SDS011;5753;54.402;10.220;2023-04-24T10:31:31;4.63;;;4.20;;
11394;SDS011;5753;54.402;10.220;2023-04-24T10:33:58;4.38;;;3.90;;
11394;SDS011;5753;54.402;10.220;2023-04-24T10:36:26;5.88;;;5.07;;
11394;SDS011;5753;54.402;10.220;2023-04-24T10:38:54;6.45;;;4.15;;
11394;SDS011;5753;54.402;10.220;2023-04-24T10:41:24;4.18;;;3.58;;
11394;SDS011;5753;54.402;10.220;2023-04-24T10:46:34;7.30;;;4.22;;
11394;SDS011;5753;54.402;10.220;2023-04-24T10:49:05;4.10;;;3.63;;
11394;SDS011;5753;54.402;10.220;2023-04-24T10:51:47;5.80;;;5.00;;
11394;SDS011;5753;54.402;10.220;2023-04-24T10:54:24;4.53;;;3.92;;
11394;SDS011;5753;54.402;10.220;2023-04-24T10:59:51;3.95;;;3.60;;
11394;SDS011;5753;54.402;10.220;2023-04-24T11:02:38;5.40;;;4.75;;
11394;SDS011;5753;54.402;10.220;2023-04-24T11:05:08;6.88;;;5.53;;
11394;SDS011;5753;54.402;10.220;2023-04-24T11:10:44;5.45;;;4.15;;
11394;SDS011;5753;54.402;10.220;2023-04-24T11:13:15;7.38;;;5.00;;
11394;SDS011;5753;54.402;10.220;2023-04-24T11:15:42;6.18;;;4.78;;
11394;SDS011;5753;54.402;10.220;2023-04-24T11:18:15;7.05;;;5.20;;
11394;SDS011;5753;54.402;10.220;2023-04-24T11:20:41;5.43;;;4.93;;
11394;SDS011;5753;54.402;10.220;2023-04-24T11:23:09;5.53;;;4.05;;
11394;SDS011;5753;54.402;10.220;2023-04-24T11:25:57;5.40;;;4.90;;
11394;SDS011;5753;54.402;10.220;2023-04-24T11:28:48;6.00;;;5.40;;
11394;SDS011;5753;54.402;10.220;2023-04-24T11:34:22;6.38;;;5.80;;
11394;SDS011;5753;54.402;10.220;2023-04-24T11:36:48;6.28;;;5.18;;
11394;SDS011;5753;54.402;10.220;2023-04-24T11:39:14;7.13;;;5.60;;
11394;SDS011;5753;54.402;10.220;2023-04-24T11:41:43;5.78;;;4.78;;
11394;SDS011;5753;54.402;10.220;2023-04-24T11:44:11;5.88;;;5.32;;
11394;SDS011;5753;54.402;10.220;2023-04-24T11:46:38;9.43;;;7.20;;
11394;SDS011;5753;54.402;10.220;2023-04-24T11:49:05;6.75;;;5.60;;
11394;SDS011;5753;54.402;10.220;2023-04-24T11:51:31;7.28;;;5.55;;
11394;SDS011;5753;54.402;10.220;2023-04-24T11:53:59;7.55;;;6.35;;
11394;SDS011;5753;54.402;10.220;2023-04-24T11:56:25;7.93;;;6.70;;
11394;SDS011;5753;54.402;10.220;2023-04-24T11:58:52;6.93;;;6.22;;
11394;SDS011;5753;54.402;10.220;2023-04-24T12:01:21;7.35;;;6.10;;
11394;SDS011;5753;54.402;10.220;2023-04-24T12:03:48;5.90;;;5.30;;
11394;SDS011;5753;54.402;10.220;2023-04-24T12:06:16;8.55;;;7.72;;
11394;SDS011;5753;54.402;10.220;2023-04-24T12:08:50;8.63;;;6.70;;
11394;SDS011;5753;54.402;10.220;2023-04-24T12:11:20;7.80;;;6.20;;
11394;SDS011;5753;54.402;10.220;2023-04-24T12:13:46;9.25;;;6.28;;
11394;SDS011;5753;54.402;10.220;2023-04-24T12:16:12;8.30;;;6.68;;
11394;SDS011;5753;54.402;10.220;2023-04-24T12:18:42;8.13;;;7.15;;
11394;SDS011;5753;54.402;10.220;2023-04-24T12:21:21;8.32;;;7.47;;
11394;SDS011;5753;54.402;10.220;2023-04-24T12:23:47;8.35;;;7.32;;
11394;SDS011;5753;54.402;10.220;2023-04-24T12:26:16;7.47;;;6.70;;
11394;SDS011;5753;54.402;10.220;2023-04-24T12:28:45;7.28;;;6.60;;
11394;SDS011;5753;54.402;10.220;2023-04-24T12:31:14;7.90;;;6.55;;
11394;SDS011;5753;54.402;10.220;2023-04-24T12:33:45;8.05;;;7.28;;
11394;SDS011;5753;54.402;10.220;2023-04-24T12:36:12;6.22;;;5.70;;
11394;SDS011;5753;54.402;10.220;2023-04-24T12:38:38;7.07;;;6.03;;
11394;SDS011;5753;54.402;10.220;2023-04-24T12:41:09;8.50;;;7.68;;
11394;SDS011;5753;54.402;10.220;2023-04-24T12:43:40;7.55;;;6.22;;
11394;SDS011;5753;54.402;10.220;2023-04-24T12:46:17;9.20;;;8.07;;
11394;SDS011;5753;54.402;10.220;2023-04-24T12:48:43;7.47;;;6.78;;
11394;SDS011;5753;54.402;10.220;2023-04-24T12:51:09;7.28;;;6.57;;
11394;SDS011;5753;54.402;10.220;2023-04-24T12:53:35;7.78;;;5.72;;
11394;SDS011;5753;54.402;10.220;2023-04-24T12:56:02;7.32;;;6.45;;
11394;SDS011;5753;54.402;10.220;2023-04-24T12:58:28;9.93;;;8.10;;
11394;SDS011;5753;54.402;10.220;2023-04-24T13:00:54;13.52;;;6.43;;
11394;SDS011;5753;54.402;10.220;2023-04-24T13:03:22;7.65;;;6.13;;
11394;SDS011;5753;54.402;10.220;2023-04-24T13:05:49;9.38;;;6.63;;
11394;SDS011;5753;54.402;10.220;2023-04-24T13:08:15;8.70;;;6.55;;
11394;SDS011;5753;54.402;10.220;2023-04-24T13:10:41;6.93;;;5.50;;
11394;SDS011;5753;54.402;10.220;2023-04-24T13:13:08;9.65;;;8.13;;
11394;SDS011;5753;54.402;10.220;2023-04-24T13:15:34;9.02;;;7.90;;
11394;SDS011;5753;54.402;10.220;2023-04-24T13:18:00;9.23;;;6.50;;
11394;SDS011;5753;54.402;10.220;2023-04-24T13:20:26;14.32;;;8.23;;
11394;SDS011;5753;54.402;10.220;2023-04-24T13:22:53;8.60;;;7.65;;
11394;SDS011;5753;54.402;10.220;2023-04-24T13:25:21;8.80;;;7.88;;
11394;SDS011;5753;54.402;10.220;2023-04-24T13:27:48;11.35;;;7.97;;
11394;SDS011;5753;54.402;10.220;2023-04-24T13:30:14;9.32;;;7.28;;
11394;SDS011;5753;54.402;10.220;2023-04-24T13:32:40;10.63;;;8.73;;
11394;SDS011;5753;54.402;10.220;2023-04-24T13:35:07;11.48;;;8.77;;
11394;SDS011;5753;54.402;10.220;2023-04-24T13:37:35;11.65;;;9.38;;
11394;SDS011;5753;54.402;10.220;2023-04-24T13:40:05;12.98;;;9.02;;
11394;SDS011;5753;54.402;10.220;2023-04-24T13:42:32;13.25;;;10.48;;
11394;SDS011;5753;54.402;10.220;2023-04-24T13:45:01;13.75;;;10.50;;
11394;SDS011;5753;54.402;10.220;2023-04-24T13:47:28;14.23;;;9.82;;
11394;SDS011;5753;54.402;10.220;2023-04-24T13:49:54;14.32;;;10.30;;
11394;SDS011;5753;54.402;10.220;2023-04-24T13:52:20;16.02;;;10.55;;
11394;SDS011;5753;54.402;10.220;2023-04-24T13:54:47;12.68;;;10.48;;
11394;SDS011;5753;54.402;10.220;2023-04-24T13:57:13;16.50;;;9.65;;
11394;SDS011;5753;54.402;10.220;2023-04-24T13:59:40;13.25;;;8.63;;
11394;SDS011;5753;54.402;10.220;2023-04-24T14:02:06;15.25;;;10.52;;
11394;SDS011;5753;54.402;10.220;2023-04-24T14:04:32;10.73;;;8.52;;
11394;SDS011;5753;54.402;10.220;2023-04-24T14:06:59;10.82;;;9.48;;
11394;SDS011;5753;54.402;10.220;2023-04-24T14:09:25;10.48;;;9.48;;
11394;SDS011;5753;54.402;10.220;2023-04-24T14:11:51;11.85;;;8.73;;
11394;SDS011;5753;54.402;10.220;2023-04-24T14:14:17;13.52;;;10.20;;
11394;SDS011;5753;54.402;10.220;2023-04-24T14:16:44;14.90;;;10.15;;
11394;SDS011;5753;54.402;10.220;2023-04-24T14:19:10;11.95;;;9.20;;
11394;SDS011;5753;54.402;10.220;2023-04-24T14:21:36;13.35;;;10.43;;
11394;SDS011;5753;54.402;10.220;2023-04-24T14:24:02;8.55;;;6.75;;
11394;SDS011;5753;54.402;10.220;2023-04-24T14:26:28;10.23;;;6.13;;
11394;SDS011;5753;54.402;10.220;2023-04-24T14:28:54;8.73;;;6.25;;
11394;SDS011;5753;54.402;10.220;2023-04-24T14:31:20;9.98;;;8.63;;
11394;SDS011;5753;54.402;10.220;2023-04-24T14:33:47;9.77;;;8.02;;
11394;SDS011;5753;54.402;10.220;2023-04-24T14:36:13;7.88;;;6.43;;
11394;SDS011;5753;54.402;10.220;2023-04-24T14:38:39;9.02;;;6.63;;
11394;SDS011;5753;54.402;10.220;2023-04-24T14:41:05;10.25;;;7.72;;
11394;SDS011;5753;54.402;10.220;2023-04-24T14:43:35;8.23;;;7.43;;
11394;SDS011;5753;54.402;10.220;2023-04-24T14:46:01;10.48;;;8.50;;
11394;SDS011;5753;54.402;10.220;2023-04-24T14:48:28;11.13;;;8.35;;
11394;SDS011;5753;54.402;10.220;2023-04-24T14:50:55;15.73;;;9.57;;
11394;SDS011;5753;54.402;10.220;2023-04-24T14:53:21;10.70;;;7.85;;
11394;SDS011;5753;54.402;10.220;2023-04-24T14:55:47;6.80;;;6.00;;
11394;SDS011;5753;54.402;10.220;2023-04-24T14:58:13;9.02;;;6.32;;
11394;SDS011;5753;54.402;10.220;2023-04-24T15:00:39;8.32;;;5.90;;